Аэропорт: Шымкент. Шымкент

ICAO: UAII

METAR:
2018/11/21 18:30
UAII 211830Z 24002MPS 170V270 5000 BR SCT040 OVC100 06/03 Q1010 R10/0///70 NOSIG RMK QFE722/0963
METAR:
2018/11/21 18:18
TAF UAII 211700Z 2118/2218 22005MPS 4000 BR BKN030CB OVC100 TX10/2209Z TN01/2201Z 
      TEMPO 2118/2120 13006MPS 2000 
      TEMPO 2120/2203 18006G11MPS 1000 SHRA BR BKN004 OVC020CB 
      TEMPO 2203/2213 19010G15MPS 6000 -SHRA BKN006 OVC020CB